createdAt,value
2023-01-07T00:00:32.532Z,8.45
2023-01-07T00:03:18.959Z,5.78
2023-01-07T00:06:07.245Z,7.60
2023-01-07T00:08:55.163Z,16.85
2023-01-07T00:11:41.654Z,10.63
2023-01-07T00:14:27.561Z,2.22
2023-01-07T00:17:13.562Z,3.58
2023-01-07T00:19:59.912Z,1.52
2023-01-07T00:22:46.122Z,10.13
2023-01-07T00:25:32.341Z,1.85
2023-01-07T00:28:18.973Z,22.38
2023-01-07T00:31:06.746Z,8.63
2023-01-07T00:33:55.275Z,3.80
2023-01-07T00:36:44.947Z,9.88
2023-01-07T00:39:30.987Z,12.85
2023-01-07T00:42:35.760Z,4.80
2023-01-07T00:45:22.348Z,3.85
2023-01-07T00:48:09.218Z,2.08
2023-01-07T00:50:55.313Z,5.50
2023-01-07T00:53:41.283Z,2.65
2023-01-07T00:56:27.577Z,9.27
2023-01-07T00:59:13.561Z,5.03
2023-01-07T01:02:00.689Z,1.80
2023-01-07T01:04:46.712Z,6.65
2023-01-07T01:07:34.384Z,6.63
2023-01-07T01:10:20.576Z,2.67
2023-01-07T01:13:06.799Z,4.43
2023-01-07T01:15:52.789Z,2.83
2023-01-07T01:18:39.047Z,3.47
2023-01-07T01:21:25.106Z,4.68
2023-01-07T01:24:11.396Z,1.30
2023-01-07T01:26:57.620Z,2.05
2023-01-07T01:29:43.564Z,3.90
2023-01-07T01:32:30.997Z,3.45
2023-01-07T01:35:17.523Z,18.65
2023-01-07T01:38:03.513Z,2.60
2023-01-07T01:40:52.776Z,4.68
2023-01-07T01:43:40.442Z,2.60
2023-01-07T01:46:31.079Z,8.32
2023-01-07T01:49:23.437Z,4.93
2023-01-07T01:52:11.893Z,3.03
2023-01-07T01:55:00.402Z,5.60
2023-01-07T01:57:48.387Z,5.97
2023-01-07T02:00:35.433Z,2.85
2023-01-07T02:03:25.148Z,5.32
2023-01-07T02:06:18.926Z,4.10
2023-01-07T02:09:05.112Z,1.63
2023-01-07T02:12:10.125Z,10.85
2023-01-07T02:14:56.214Z,4.38
2023-01-07T02:18:01.249Z,7.93
2023-01-07T02:20:50.666Z,5.82
2023-01-07T02:23:51.929Z,6.68
2023-01-07T02:26:56.832Z,1.98
2023-01-07T02:29:55.936Z,3.22
2023-01-07T02:32:42.069Z,5.47
2023-01-07T02:35:28.355Z,5.18
2023-01-07T02:38:29.515Z,1.50
2023-01-07T02:41:18.372Z,2.75
2023-01-07T02:44:04.702Z,17.73
2023-01-07T02:46:54.633Z,1.98
2023-01-07T02:49:40.588Z,13.77
2023-01-07T02:52:28.272Z,3.05
2023-01-07T02:55:34.685Z,1.73
2023-01-07T02:58:29.967Z,3.15
2023-01-07T03:01:49.982Z,9.60
2023-01-07T03:04:46.379Z,6.25
2023-01-07T03:07:35.396Z,4.63
2023-01-07T03:10:27.229Z,4.97
2023-01-07T03:13:32.024Z,2.72
2023-01-07T03:16:23.983Z,3.90
2023-01-07T03:19:15.043Z,4.80
2023-01-07T03:22:02.553Z,3.75
2023-01-07T03:24:50.142Z,7.40
2023-01-07T03:27:36.988Z,35.97
2023-01-07T03:30:24.119Z,2.08
2023-01-07T03:33:45.655Z,7.22
2023-01-07T03:36:34.258Z,2.92
2023-01-07T03:39:22.713Z,2.53
2023-01-07T03:42:28.521Z,2.50
2023-01-07T03:45:16.578Z,2.78
2023-01-07T03:48:02.767Z,2.08
2023-01-07T03:51:07.273Z,2.58
2023-01-07T03:53:53.356Z,3.45
2023-01-07T03:56:39.534Z,2.70
2023-01-07T03:59:25.617Z,1.17
2023-01-07T04:02:12.358Z,4.43
2023-01-07T04:04:58.505Z,4.68
2023-01-07T04:07:45.146Z,1.70
2023-01-07T04:10:31.153Z,1.67
2023-01-07T04:13:17.271Z,3.20
2023-01-07T04:16:05.840Z,4.57
2023-01-07T04:18:51.899Z,2.63
2023-01-07T04:21:38.749Z,1.73
2023-01-07T04:24:25.311Z,8.63
2023-01-07T04:27:11.551Z,2.35
2023-01-07T04:29:57.871Z,3.17
2023-01-07T04:32:44.005Z,1.95
2023-01-07T04:35:30.108Z,2.90
2023-01-07T04:38:16.753Z,4.05
2023-01-07T04:41:02.897Z,3.92
2023-01-07T04:43:49.134Z,9.38
2023-01-07T04:46:35.420Z,2.17
2023-01-07T04:49:21.457Z,2.75
2023-01-07T04:52:09.087Z,3.78
2023-01-07T04:54:56.398Z,1.63
2023-01-07T04:57:43.221Z,3.20
2023-01-07T05:00:31.015Z,7.35
2023-01-07T05:03:17.737Z,1.77
2023-01-07T05:06:04.193Z,4.85
2023-01-07T05:08:51.933Z,5.40
2023-01-07T05:11:38.998Z,1.52
2023-01-07T05:14:25.574Z,3.45
2023-01-07T05:17:13.053Z,3.15
2023-01-07T05:19:59.298Z,2.17
2023-01-07T05:22:46.489Z,3.42
2023-01-07T05:25:33.320Z,1.08
2023-01-07T05:28:19.188Z,1.20
2023-01-07T05:31:23.665Z,3.20
2023-01-07T05:34:10.010Z,6.18
2023-01-07T05:36:56.989Z,9.88
2023-01-07T05:39:42.929Z,4.97
2023-01-07T05:42:31.041Z,2.78
2023-01-07T05:45:17.307Z,1.13
2023-01-07T05:48:03.616Z,3.33
2023-01-07T05:51:07.871Z,10.63
2023-01-07T05:53:54.159Z,1.08
2023-01-07T05:56:40.345Z,3.40
2023-01-07T05:59:26.550Z,2.38
2023-01-07T06:02:12.775Z,0.85
2023-01-07T06:04:58.968Z,2.80
2023-01-07T06:07:45.203Z,2.85
2023-01-07T06:10:31.480Z,1.75
2023-01-07T06:13:17.495Z,6.05
2023-01-07T06:16:08.445Z,2.08
2023-01-07T06:18:54.441Z,31.05
2023-01-07T06:21:59.641Z,2.45
2023-01-07T06:24:46.449Z,3.75
2023-01-07T06:27:33.513Z,1.67
2023-01-07T06:30:19.476Z,7.40
2023-01-07T06:33:08.433Z,4.57
2023-01-07T06:35:54.201Z,8.27
2023-01-07T06:38:41.778Z,3.83
2023-01-07T06:41:27.747Z,1.10
2023-01-07T06:44:13.837Z,4.38
2023-01-07T06:47:00.081Z,1.58
2023-01-07T06:49:46.285Z,3.00
2023-01-07T06:52:32.595Z,5.88
2023-01-07T06:55:18.888Z,5.55
2023-01-07T06:58:05.011Z,1.85
2023-01-07T07:00:51.081Z,1.65
2023-01-07T07:03:37.324Z,5.85
2023-01-07T07:06:23.435Z,17.75
2023-01-07T07:09:09.723Z,8.55
2023-01-07T07:11:55.850Z,12.95
2023-01-07T07:14:41.923Z,5.00
2023-01-07T07:17:28.023Z,6.78
2023-01-07T07:20:14.211Z,8.65
2023-01-07T07:23:02.151Z,34.80
2023-01-07T07:25:48.146Z,32.83
2023-01-07T07:28:34.235Z,36.42
2023-01-07T07:31:20.473Z,31.63
2023-01-07T07:34:06.374Z,38.35
2023-01-07T07:36:52.146Z,28.67
2023-01-07T07:39:38.407Z,28.70
2023-01-07T07:42:24.697Z,23.10
2023-01-07T07:45:10.779Z,38.22
2023-01-07T07:47:56.994Z,27.27
2023-01-07T07:50:43.222Z,31.77
2023-01-07T07:53:29.507Z,31.90
2023-01-07T07:56:15.225Z,47.47
2023-01-07T07:59:01.265Z,44.88
2023-01-07T08:01:47.640Z,38.97
2023-01-07T08:04:34.993Z,41.58
2023-01-07T08:07:32.969Z,45.55
2023-01-07T08:10:20.715Z,36.63
2023-01-07T08:13:07.150Z,8.85
2023-01-07T08:15:53.226Z,56.42
2023-01-07T08:18:40.061Z,133.10
2023-01-07T08:21:26.113Z,19.17
2023-01-07T08:24:12.259Z,95.70
2023-01-07T08:26:58.529Z,33.83
2023-01-07T08:29:45.047Z,16.30
2023-01-07T08:32:30.825Z,166.63
2023-01-07T08:35:17.176Z,87.53
2023-01-07T08:38:04.533Z,51.40
2023-01-07T08:41:09.131Z,59.03
2023-01-07T08:43:55.339Z,27.10
2023-01-07T08:46:42.991Z,73.43
2023-01-07T08:49:29.320Z,86.25
2023-01-07T08:52:15.143Z,76.32
2023-01-07T08:55:01.211Z,86.93
2023-01-07T08:57:47.700Z,50.05
2023-01-07T09:00:33.983Z,36.95
2023-01-07T09:03:19.898Z,21.33
2023-01-07T09:06:06.724Z,67.40
2023-01-07T09:08:52.863Z,11.25
2023-01-07T09:11:38.895Z,11.45
2023-01-07T09:14:25.280Z,87.70
2023-01-07T09:17:11.541Z,40.92
2023-01-07T09:19:57.577Z,39.45
2023-01-07T09:22:43.735Z,36.00
2023-01-07T09:25:29.857Z,48.15
2023-01-07T09:28:15.941Z,52.03
2023-01-07T09:31:03.202Z,40.55
2023-01-07T09:33:49.424Z,42.88
2023-01-07T09:36:35.666Z,58.95
2023-01-07T09:39:22.046Z,54.50
2023-01-07T09:42:37.568Z,48.60
2023-01-07T09:45:27.346Z,44.17
2023-01-07T09:48:19.145Z,52.97
2023-01-07T09:51:05.159Z,55.25
2023-01-07T09:53:55.307Z,71.55
2023-01-07T09:56:41.236Z,79.50
2023-01-07T09:59:27.546Z,52.45
2023-01-07T10:02:13.983Z,31.65
2023-01-07T10:05:12.420Z,33.55
2023-01-07T10:08:31.161Z,53.80
2023-01-07T10:11:04.682Z,41.97
2023-01-07T10:14:09.581Z,30.20
2023-01-07T10:16:58.590Z,24.67
2023-01-07T10:19:53.547Z,50.47
2023-01-07T10:22:51.894Z,32.30
2023-01-07T10:25:42.961Z,36.47
2023-01-07T10:28:32.469Z,37.03
2023-01-07T10:31:21.366Z,34.97
2023-01-07T10:34:13.723Z,30.50
2023-01-07T10:37:05.986Z,44.33
2023-01-07T10:40:06.360Z,41.88
2023-01-07T10:45:45.674Z,36.17
2023-01-07T10:48:38.138Z,45.85
2023-01-07T10:51:36.024Z,53.65
2023-01-07T10:54:41.218Z,52.20
2023-01-07T10:57:28.830Z,39.92
2023-01-07T11:00:16.874Z,41.97
2023-01-07T11:03:03.471Z,29.75
2023-01-07T11:05:54.333Z,61.25
2023-01-07T11:08:41.448Z,41.70
2023-01-07T11:11:27.489Z,45.92
2023-01-07T11:14:21.034Z,43.55
2023-01-07T11:17:09.930Z,39.65
2023-01-07T11:19:56.496Z,45.92
2023-01-07T11:22:42.416Z,48.35
2023-01-07T11:25:29.275Z,45.60
2023-01-07T11:28:19.735Z,42.03
2023-01-07T11:31:06.197Z,53.28
2023-01-07T11:34:03.463Z,56.95
2023-01-07T11:36:51.001Z,49.08
2023-01-07T11:39:37.217Z,66.00
2023-01-07T11:42:38.786Z,146.55
2023-01-07T11:45:26.623Z,48.73
2023-01-07T11:48:20.482Z,43.05
2023-01-07T11:51:09.053Z,43.42
2023-01-07T11:53:54.881Z,51.80
2023-01-07T11:56:41.087Z,40.28
2023-01-07T11:59:28.676Z,54.63
2023-01-07T12:02:25.192Z,46.13
2023-01-07T12:05:26.300Z,42.88
2023-01-07T12:08:19.273Z,58.30
2023-01-07T12:11:29.715Z,73.10
2023-01-07T12:14:37.230Z,52.95
2023-01-07T12:17:28.033Z,48.75
2023-01-07T12:20:14.318Z,112.82
2023-01-07T12:23:09.488Z,60.60
2023-01-07T12:25:59.000Z,60.28
2023-01-07T12:28:52.321Z,60.30
2023-01-07T12:32:04.152Z,74.13
2023-01-07T12:34:58.810Z,104.63
2023-01-07T12:38:25.373Z,55.15
2023-01-07T12:41:13.605Z,75.13
2023-01-07T12:43:59.642Z,75.82
2023-01-07T12:47:31.794Z,69.60
2023-01-07T12:50:13.202Z,58.22
2023-01-07T12:53:04.877Z,40.33
2023-01-07T12:56:09.740Z,54.85
2023-01-07T12:59:05.920Z,61.38
2023-01-07T13:01:56.502Z,61.55
2023-01-07T13:04:51.906Z,54.03
2023-01-07T13:07:53.958Z,63.55
2023-01-07T13:10:45.768Z,49.78
2023-01-07T13:13:37.793Z,56.47
2023-01-07T13:16:23.831Z,44.72
2023-01-07T13:19:09.836Z,40.10
2023-01-07T13:21:56.428Z,50.08
2023-01-07T13:25:00.077Z,40.92
2023-01-07T13:27:55.063Z,36.13
2023-01-07T13:30:59.762Z,30.08
2023-01-07T13:33:48.662Z,42.30
2023-01-07T13:36:45.252Z,41.83
2023-01-07T13:39:54.259Z,35.42
2023-01-07T13:42:39.891Z,147.60
2023-01-07T13:45:28.661Z,84.72
2023-01-07T13:48:21.220Z,41.28
2023-01-07T13:51:08.035Z,44.85
2023-01-07T13:53:53.778Z,51.22
2023-01-07T13:56:40.015Z,59.42
2023-01-07T13:59:30.996Z,47.17
2023-01-07T14:02:24.595Z,67.70
2023-01-07T14:05:10.858Z,62.58
2023-01-07T14:08:01.057Z,50.47
2023-01-07T14:10:54.640Z,76.63
2023-01-07T14:13:55.516Z,64.85
2023-01-07T14:16:48.061Z,64.15
2023-01-07T14:19:52.935Z,80.65
2023-01-07T14:22:50.127Z,67.28
2023-01-07T14:25:51.697Z,119.72
2023-01-07T14:28:43.771Z,97.95
2023-01-07T14:31:30.659Z,147.20
2023-01-07T14:34:25.400Z,96.85
2023-01-07T14:37:15.877Z,77.00
2023-01-07T14:40:21.741Z,117.28
2023-01-07T14:43:27.952Z,263.38
2023-01-07T14:46:23.501Z,158.75
2023-01-07T14:49:36.491Z,85.32
2023-01-07T14:52:36.166Z,108.97
2023-01-07T14:55:25.247Z,99.90
2023-01-07T14:58:22.180Z,148.57
2023-01-07T15:01:28.978Z,141.90
2023-01-07T15:04:21.477Z,178.27
2023-01-07T15:07:13.973Z,134.02
2023-01-07T15:10:26.050Z,136.43
2023-01-07T15:13:33.666Z,192.88
2023-01-07T15:16:20.946Z,225.70
2023-01-07T15:19:09.131Z,236.98
2023-01-07T15:22:08.739Z,294.27
2023-01-07T15:25:13.667Z,167.35
2023-01-07T15:28:12.752Z,138.13
2023-01-07T15:31:08.605Z,171.10
2023-01-07T15:34:01.498Z,120.47
2023-01-07T15:36:48.936Z,115.43
2023-01-07T15:39:43.472Z,84.78
2023-01-07T15:42:33.043Z,77.22
2023-01-07T15:45:20.839Z,66.20
2023-01-07T15:48:08.402Z,78.45
2023-01-07T15:50:55.091Z,59.10
2023-01-07T15:53:43.724Z,46.97
2023-01-07T15:56:29.920Z,36.72
2023-01-07T15:59:16.317Z,33.42
2023-01-07T16:02:05.512Z,36.90
2023-01-07T16:04:57.280Z,50.22
2023-01-07T16:07:51.110Z,39.00
2023-01-07T16:10:37.791Z,61.83
2023-01-07T16:13:23.929Z,73.15
2023-01-07T16:16:15.391Z,63.95
2023-01-07T16:19:02.271Z,51.22
2023-01-07T16:21:50.777Z,50.42
2023-01-07T16:24:36.727Z,29.20
2023-01-07T16:27:27.572Z,57.30
2023-01-07T16:30:17.745Z,8.93
2023-01-07T16:33:05.746Z,28.52
2023-01-07T16:35:53.274Z,51.10
2023-01-07T16:38:39.419Z,11.68
2023-01-07T16:41:29.952Z,46.33
2023-01-07T16:44:51.423Z,82.35
2023-01-07T16:47:39.071Z,94.82
2023-01-07T16:50:24.760Z,20.17
2023-01-07T16:53:20.874Z,46.45
2023-01-07T16:56:06.793Z,6.07
2023-01-07T16:58:53.870Z,15.10
2023-01-07T17:01:40.774Z,12.18
2023-01-07T17:04:29.936Z,11.60
2023-01-07T17:07:20.738Z,33.10
2023-01-07T17:10:06.655Z,21.38
2023-01-07T17:13:00.534Z,19.10
2023-01-07T17:15:46.238Z,90.82
2023-01-07T17:18:33.206Z,46.85
2023-01-07T17:21:31.796Z,42.85
2023-01-07T17:24:30.455Z,34.05
2023-01-07T17:27:22.091Z,19.50
2023-01-07T17:30:10.507Z,13.02
2023-01-07T17:32:58.210Z,64.53
2023-01-07T17:35:48.951Z,8.88
2023-01-07T17:38:37.046Z,51.28
2023-01-07T17:41:45.069Z,66.72
2023-01-07T17:44:32.805Z,17.58
2023-01-07T17:47:22.379Z,45.28
2023-01-07T17:50:29.182Z,15.18
2023-01-07T17:53:23.680Z,36.35
2023-01-07T17:56:09.791Z,13.75
2023-01-07T17:58:56.314Z,33.42
2023-01-07T18:01:42.888Z,17.70
2023-01-07T18:04:28.914Z,9.05
2023-01-07T18:07:18.092Z,5.55
2023-01-07T18:10:04.410Z,6.35
2023-01-07T18:12:50.648Z,34.50
2023-01-07T18:15:36.725Z,12.82
2023-01-07T18:18:23.380Z,19.23
2023-01-07T18:21:11.368Z,21.80
2023-01-07T18:23:57.734Z,7.45
2023-01-07T18:26:43.773Z,18.98
2023-01-07T18:29:30.193Z,7.15
2023-01-07T18:32:18.008Z,1.95
2023-01-07T18:35:04.015Z,6.28
2023-01-07T18:37:50.442Z,3.63
2023-01-07T18:40:55.633Z,8.57
2023-01-07T18:43:41.655Z,8.23
2023-01-07T18:46:27.963Z,7.97
2023-01-07T18:49:13.998Z,4.38
2023-01-07T18:52:00.204Z,9.52
2023-01-07T18:54:46.898Z,10.32
2023-01-07T18:57:33.212Z,15.52
2023-01-07T19:00:19.570Z,13.07
2023-01-07T19:03:05.481Z,15.63
2023-01-07T19:05:51.377Z,8.77
2023-01-07T19:08:38.295Z,7.40
2023-01-07T19:11:24.236Z,35.08
2023-01-07T19:14:10.543Z,6.85
2023-01-07T19:16:57.221Z,6.25
2023-01-07T19:19:48.342Z,3.90
2023-01-07T19:22:34.958Z,11.70
2023-01-07T19:25:21.030Z,12.85
2023-01-07T19:28:07.592Z,4.35
2023-01-07T19:30:54.262Z,3.13
2023-01-07T19:33:40.775Z,2.42
2023-01-07T19:36:27.024Z,1.92
2023-01-07T19:39:14.644Z,2.58
2023-01-07T19:42:01.469Z,2.25
2023-01-07T19:44:51.297Z,2.45
2023-01-07T19:47:39.915Z,3.28
2023-01-07T19:50:25.760Z,1.67
2023-01-07T19:53:21.537Z,2.83
2023-01-07T19:56:09.426Z,14.70
2023-01-07T19:58:55.792Z,2.80
2023-01-07T20:01:43.746Z,8.60
2023-01-07T20:04:29.965Z,6.63
2023-01-07T20:07:18.605Z,14.18
2023-01-07T20:10:04.498Z,10.02
2023-01-07T20:12:51.187Z,9.95
2023-01-07T20:15:39.879Z,7.10
2023-01-07T20:18:25.704Z,5.70
2023-01-07T20:21:12.721Z,11.13
2023-01-07T20:23:58.627Z,20.20
2023-01-07T20:26:44.839Z,6.35
2023-01-07T20:29:31.010Z,7.88
2023-01-07T20:32:19.782Z,12.65
2023-01-07T20:35:06.205Z,46.17
2023-01-07T20:37:52.175Z,6.45
2023-01-07T20:40:42.302Z,7.35
2023-01-07T20:43:29.102Z,41.25
2023-01-07T20:46:15.049Z,3.88
2023-01-07T20:49:01.861Z,6.10
2023-01-07T20:51:47.786Z,4.13
2023-01-07T20:54:33.693Z,10.48
2023-01-07T20:57:19.873Z,6.18
2023-01-07T21:00:08.651Z,15.93
2023-01-07T21:02:55.549Z,4.85
2023-01-07T21:05:41.618Z,4.53
2023-01-07T21:08:27.682Z,3.25
2023-01-07T21:11:15.521Z,5.07
2023-01-07T21:14:01.695Z,11.27
2023-01-07T21:16:47.769Z,3.17
2023-01-07T21:19:34.095Z,5.20
2023-01-07T21:22:20.229Z,14.20
2023-01-07T21:25:09.540Z,10.15
2023-01-07T21:27:55.771Z,7.72
2023-01-07T21:30:42.062Z,5.68
2023-01-07T21:33:28.309Z,4.43
2023-01-07T21:36:18.876Z,10.70
2023-01-07T21:39:04.837Z,2.95
2023-01-07T21:41:50.963Z,6.07
2023-01-07T21:44:37.815Z,18.73
2023-01-07T21:47:23.941Z,3.22
2023-01-07T21:50:10.243Z,42.42
2023-01-07T21:52:56.571Z,22.45
2023-01-07T21:55:42.562Z,6.28
2023-01-07T21:58:28.726Z,6.13
2023-01-07T22:01:15.765Z,8.55
2023-01-07T22:04:03.109Z,4.45
2023-01-07T22:06:49.377Z,16.85
2023-01-07T22:09:35.728Z,17.23
2023-01-07T22:12:23.496Z,11.93
2023-01-07T22:15:10.853Z,12.48
2023-01-07T22:17:57.218Z,12.23
2023-01-07T22:20:43.867Z,24.25
2023-01-07T22:23:29.979Z,6.43
2023-01-07T22:26:16.917Z,11.07
2023-01-07T22:29:03.520Z,10.45
2023-01-07T22:31:51.140Z,11.52
2023-01-07T22:34:37.163Z,35.40
2023-01-07T22:37:26.438Z,13.18
2023-01-07T22:40:12.880Z,7.28
2023-01-07T22:43:02.137Z,6.85
2023-01-07T22:45:51.775Z,9.45
2023-01-07T22:48:38.947Z,3.40
2023-01-07T22:51:27.513Z,3.17
2023-01-07T22:54:13.755Z,18.65
2023-01-07T22:57:00.525Z,31.50
2023-01-07T22:59:47.249Z,13.68
2023-01-07T23:02:33.581Z,7.38
2023-01-07T23:05:19.655Z,1.75
2023-01-07T23:08:06.191Z,6.68
2023-01-07T23:10:51.997Z,2.28
2023-01-07T23:13:38.528Z,7.00
2023-01-07T23:16:24.695Z,2.75
2023-01-07T23:19:10.759Z,2.60
2023-01-07T23:21:56.917Z,4.25
2023-01-07T23:24:42.919Z,2.78
2023-01-07T23:27:29.196Z,4.65
2023-01-07T23:30:15.399Z,1.88
2023-01-07T23:33:01.624Z,6.05
2023-01-07T23:35:47.870Z,1.20
2023-01-07T23:38:34.341Z,2.03
2023-01-07T23:41:20.115Z,3.30
2023-01-07T23:44:06.259Z,2.00
2023-01-07T23:46:52.349Z,2.83
2023-01-07T23:49:38.601Z,2.65
2023-01-07T23:52:24.743Z,2.05
2023-01-07T23:55:10.938Z,1.35
2023-01-07T23:57:57.060Z,2.05
